Time;durP1;ratioP1;P1;durP2;ratioP2;P2;SDS_P1;SDS_P2;PMS_P1;PMS_P2;Temp;Humidity;BMP_temperature;BMP_pressure;BME280_temperature;BME280_humidity;BME280_pressure;Samples;Min_cycle;Max_cycle;Signal;HPM_P1;HPM_P2
2022/05/20 00:02:00;;;;;;;10.43;5.72;;;13.40;99.90;;;;;;5039636;28;20060;-77
2022/05/20 00:04:26;;;;;;;11.77;5.72;;;13.50;99.90;;;;;;5039508;28;20029;-77
2022/05/20 00:06:52;;;;;;;9.10;5.75;;;13.40;99.90;;;;;;5033311;28;20044;-77
2022/05/20 00:09:18;;;;;;;13.23;6.50;;;13.40;99.90;;;;;;5031988;28;20182;-77
2022/05/20 00:11:43;;;;;;;11.30;6.35;;;13.40;99.90;;;;;;5068620;27;20337;-77
2022/05/20 00:14:09;;;;;;;10.48;5.55;;;13.50;99.90;;;;;;5094710;27;20104;-77
2022/05/20 00:16:35;;;;;;;13.55;6.10;;;13.60;99.90;;;;;;5093701;27;20046;-77
2022/05/20 00:19:07;;;;;;;12.70;5.60;;;13.60;99.90;;;;;;5091940;27;20396;-76
2022/05/20 00:21:33;;;;;;;10.60;6.40;;;13.60;99.90;;;;;;5121336;27;20048;-76
2022/05/20 00:23:59;;;;;;;11.13;6.05;;;13.40;99.90;;;;;;5118989;27;20038;-76
2022/05/20 00:26:26;;;;;;;11.82;6.38;;;13.50;99.90;;;;;;5118676;27;20031;-77
2022/05/20 00:28:53;;;;;;;10.60;6.20;;;13.50;99.90;;;;;;5102033;27;20050;-75
2022/05/20 00:31:21;;;;;;;10.85;6.47;;;13.50;99.90;;;;;;5122772;27;20046;-77
2022/05/20 00:33:48;;;;;;;11.38;6.35;;;13.40;99.90;;;;;;5110723;27;20039;-79
2022/05/20 00:36:14;;;;;;;10.32;6.88;;;13.40;99.90;;;;;;5107594;27;20362;-79
2022/05/20 00:38:39;;;;;;;14.25;6.85;;;13.40;99.90;;;;;;5113353;27;20035;-78
2022/05/20 00:41:07;;;;;;;15.02;7.03;;;13.30;99.90;;;;;;5120687;27;20472;-79
2022/05/20 00:43:32;;;;;;;9.20;7.00;;;13.30;99.90;;;;;;5095137;27;20094;-79
2022/05/20 00:46:11;;;;;;;14.90;7.60;;;13.20;99.90;;;;;;5115198;27;20146;-78
2022/05/20 00:48:40;;;;;;;13.18;8.52;;;13.20;99.90;;;;;;5116564;27;20050;-80
2022/05/20 00:51:13;;;;;;;16.10;8.07;;;13.10;99.90;;;;;;5100564;27;20409;-78
2022/05/20 00:53:44;;;;;;;14.55;8.50;;;13.10;99.90;;;;;;5111789;27;20051;-78
2022/05/20 00:56:16;;;;;;;12.10;8.07;;;13.20;99.90;;;;;;5098116;27;20090;-79
2022/05/20 00:58:44;;;;;;;16.83;9.13;;;13.10;99.90;;;;;;5114758;27;20046;-79
2022/05/20 01:01:09;;;;;;;17.23;9.43;;;13.00;99.90;;;;;;5110378;27;20050;-77
2022/05/20 01:03:37;;;;;;;16.55;9.63;;;12.90;99.90;;;;;;5090123;27;20050;-78
2022/05/20 01:06:03;;;;;;;16.02;9.70;;;12.90;99.90;;;;;;5086158;27;20331;-78
2022/05/20 01:08:31;;;;;;;17.08;9.55;;;12.90;99.90;;;;;;5106978;27;20047;-79
2022/05/20 01:10:58;;;;;;;14.60;9.82;;;12.80;99.90;;;;;;5113773;27;20540;-80
2022/05/20 01:13:29;;;;;;;20.10;10.43;;;12.90;99.90;;;;;;5094493;27;20039;-79
2022/05/20 01:15:55;;;;;;;21.85;10.10;;;12.70;99.90;;;;;;5096454;27;20177;-79
2022/05/20 01:18:22;;;;;;;16.98;10.38;;;12.70;99.90;;;;;;5099366;27;20146;-79
2022/05/20 01:20:51;;;;;;;15.70;10.20;;;12.70;99.90;;;;;;5114946;27;20145;-79
2022/05/20 01:23:21;;;;;;;18.65;9.77;;;12.80;99.90;;;;;;5097872;27;20043;-79
2022/05/20 01:25:50;;;;;;;16.65;10.10;;;12.60;99.90;;;;;;5111522;27;20035;-79
2022/05/20 01:28:18;;;;;;;15.93;10.43;;;12.60;99.90;;;;;;5112978;27;20038;-79
2022/05/20 01:30:54;;;;;;;16.85;10.60;;;12.60;99.90;;;;;;5109936;27;20128;-79
2022/05/20 01:33:24;;;;;;;17.65;10.45;;;12.50;99.90;;;;;;5110896;27;20053;-79
2022/05/20 01:35:50;;;;;;;17.48;10.10;;;12.50;99.90;;;;;;5112029;27;20054;-78
2022/05/20 01:38:16;;;;;;;19.52;10.85;;;12.50;99.90;;;;;;5112726;27;20042;-79
2022/05/20 01:40:49;;;;;;;18.60;11.25;;;12.50;99.90;;;;;;5117370;27;20030;-79
2022/05/20 01:43:27;;;;;;;16.67;10.18;;;12.40;99.90;;;;;;5112904;27;20466;-78
2022/05/20 01:46:11;;;;;;;19.77;11.27;;;12.40;99.90;;;;;;5099143;27;20047;-78
2022/05/20 01:48:55;;;;;;;23.42;11.25;;;12.40;99.90;;;;;;5101031;27;20043;-78
2022/05/20 01:51:27;;;;;;;16.20;10.77;;;12.40;99.90;;;;;;5105897;27;20066;-79
2022/05/20 01:53:57;;;;;;;21.50;11.77;;;12.40;99.90;;;;;;5110777;27;20035;-77
2022/05/20 01:56:37;;;;;;;20.58;11.07;;;12.40;99.90;;;;;;5107512;27;20131;-76
2022/05/20 01:59:09;;;;;;;17.15;11.65;;;12.50;99.90;;;;;;5096667;27;20042;-78
2022/05/20 02:01:43;;;;;;;18.33;12.18;;;12.40;99.90;;;;;;5108927;27;20188;-79
2022/05/20 02:04:34;;;;;;;19.23;11.77;;;12.50;99.90;;;;;;5099361;27;20474;-78
2022/05/20 02:07:05;;;;;;;23.35;12.20;;;12.50;99.90;;;;;;5131982;27;20494;-77
2022/05/20 02:09:47;;;;;;;21.92;12.30;;;12.40;99.90;;;;;;5091451;27;20038;-77
2022/05/20 02:12:17;;;;;;;19.30;11.35;;;12.40;99.90;;;;;;5100164;27;20408;-77
2022/05/20 02:15:04;;;;;;;16.90;11.52;;;12.40;99.90;;;;;;5114790;27;20054;-78
2022/05/20 02:17:34;;;;;;;24.10;11.75;;;12.40;99.90;;;;;;5120322;27;20043;-78
2022/05/20 02:20:21;;;;;;;20.75;11.77;;;12.40;99.90;;;;;;5101852;27;20073;-78
2022/05/20 02:22:53;;;;;;;18.20;10.98;;;12.30;99.90;;;;;;5116449;27;20039;-78
2022/05/20 02:25:28;;;;;;;19.70;11.70;;;12.20;99.90;;;;;;5119439;27;20034;-79
2022/05/20 02:27:58;;;;;;;21.92;11.15;;;12.20;99.90;;;;;;5116941;27;20063;-77
2022/05/20 02:30:28;;;;;;;22.10;11.43;;;12.20;99.90;;;;;;5096778;27;20035;-78
2022/05/20 02:33:06;;;;;;;15.50;10.50;;;12.20;99.90;;;;;;5101689;27;20151;-78
2022/05/20 02:35:33;;;;;;;19.92;11.75;;;12.20;99.90;;;;;;5098638;27;20031;-78
2022/05/20 02:38:08;;;;;;;22.20;11.55;;;12.00;99.90;;;;;;5097425;27;20138;-78
2022/05/20 02:40:36;;;;;;;20.38;12.00;;;12.10;99.90;;;;;;5096177;27;20035;-78
2022/05/20 02:43:02;;;;;;;19.55;11.68;;;12.10;99.90;;;;;;5108543;27;20035;-78
2022/05/20 02:45:28;;;;;;;17.25;11.25;;;12.10;99.90;;;;;;5096616;27;20034;-78
2022/05/20 02:47:53;;;;;;;17.05;11.05;;;12.10;99.90;;;;;;5115172;27;20067;-78
2022/05/20 02:50:19;;;;;;;22.33;12.55;;;12.10;99.90;;;;;;5097909;27;20198;-78
2022/05/20 02:52:45;;;;;;;23.30;12.50;;;12.40;99.90;;;;;;5116829;27;20042;-78
2022/05/20 02:55:11;;;;;;;17.05;11.27;;;12.10;99.90;;;;;;5121243;27;20154;-78
2022/05/20 02:57:37;;;;;;;20.55;12.10;;;12.00;99.90;;;;;;5098363;27;20038;-78
2022/05/20 03:05:34;;;;;;;20.90;11.75;;;12.00;99.90;;;;;;5118459;27;20039;-78
2022/05/20 03:08:00;;;;;;;25.38;12.52;;;12.00;99.90;;;;;;5096475;27;20104;-78
2022/05/20 03:10:26;;;;;;;23.02;12.55;;;12.10;99.90;;;;;;5103792;27;20374;-78
2022/05/20 03:13:01;;;;;;;21.15;13.38;;;11.90;99.90;;;;;;5114237;27;20035;-78
2022/05/20 03:15:27;;;;;;;21.63;12.65;;;11.90;99.90;;;;;;5108370;27;20046;-78
2022/05/20 03:17:53;;;;;;;19.00;13.38;;;11.90;99.90;;;;;;5125424;27;20361;-79
2022/05/20 03:20:19;;;;;;;20.15;13.13;;;12.00;99.90;;;;;;5124271;27;20040;-77
2022/05/20 03:22:44;;;;;;;21.33;12.98;;;11.80;99.90;;;;;;5124152;27;20050;-78
2022/05/20 03:25:10;;;;;;;20.08;13.38;;;11.80;99.90;;;;;;5100648;27;20074;-79
2022/05/20 03:27:37;;;;;;;20.60;14.32;;;11.80;99.90;;;;;;5110648;27;20126;-77
2022/05/20 03:30:05;;;;;;;19.40;13.60;;;11.80;99.90;;;;;;5098880;27;20068;-77
2022/05/20 03:32:30;;;;;;;18.60;13.48;;;11.70;99.90;;;;;;5116314;27;20118;-79
2022/05/20 03:34:59;;;;;;;21.20;12.82;;;11.70;99.90;;;;;;5103100;27;20134;-79
2022/05/20 03:37:25;;;;;;;22.52;12.82;;;11.80;99.90;;;;;;5097125;27;20119;-79
2022/05/20 03:39:52;;;;;;;18.80;13.52;;;11.70;99.90;;;;;;5119779;27;21017;-79
2022/05/20 03:42:19;;;;;;;19.08;13.48;;;11.70;99.90;;;;;;5115742;27;20061;-78
2022/05/20 03:44:46;;;;;;;16.90;13.05;;;11.70;99.90;;;;;;5097666;27;20081;-79
2022/05/20 03:47:12;;;;;;;19.98;14.18;;;11.70;99.90;;;;;;5113404;27;20054;-79
2022/05/20 03:49:41;;;;;;;24.63;14.15;;;11.80;99.90;;;;;;5113225;27;20038;-79
2022/05/20 03:52:08;;;;;;;20.15;14.40;;;11.80;99.90;;;;;;5123060;27;20047;-79
2022/05/20 03:54:33;;;;;;;21.23;13.70;;;11.80;99.90;;;;;;5093081;27;20037;-78
2022/05/20 03:57:00;;;;;;;18.60;13.55;;;11.80;99.90;;;;;;5095488;27;20039;-78
2022/05/20 03:59:26;;;;;;;19.02;13.60;;;11.80;99.90;;;;;;5112894;27;20039;-79
2022/05/20 04:01:58;;;;;;;20.98;13.73;;;11.80;99.90;;;;;;5097887;27;20142;-79
2022/05/20 04:04:32;;;;;;;25.30;14.77;;;11.80;99.90;;;;;;5098634;27;20385;-79
2022/05/20 04:07:00;;;;;;;18.13;13.77;;;11.80;99.90;;;;;;5099606;27;20061;-78
2022/05/20 04:09:26;;;;;;;20.58;14.02;;;11.80;99.90;;;;;;5107703;27;20039;-79
2022/05/20 04:11:55;;;;;;;19.73;14.20;;;11.80;99.90;;;;;;5116798;27;20062;-79
2022/05/20 04:14:22;;;;;;;23.83;15.38;;;11.80;99.90;;;;;;5114312;27;20043;-79
2022/05/20 04:16:48;;;;;;;23.05;14.93;;;11.80;99.90;;;;;;5096359;27;20042;-79
2022/05/20 04:19:14;;;;;;;22.90;15.00;;;11.80;99.90;;;;;;5090349;27;20046;-80
2022/05/20 04:21:41;;;;;;;22.95;15.25;;;11.80;99.90;;;;;;5097543;27;20096;-79
2022/05/20 04:24:07;;;;;;;28.70;17.02;;;12.10;99.90;;;;;;5117157;27;20151;-79
2022/05/20 04:26:33;;;;;;;25.40;17.52;;;11.80;99.90;;;;;;5143104;27;20553;-79
2022/05/20 04:28:59;;;;;;;26.50;16.42;;;11.90;99.90;;;;;;5097342;27;20034;-78
2022/05/20 04:31:24;;;;;;;24.67;17.25;;;11.80;99.90;;;;;;5101712;27;20061;-80
2022/05/20 04:33:51;;;;;;;21.55;15.55;;;11.80;99.90;;;;;;5100244;27;20084;-78
2022/05/20 04:36:16;;;;;;;21.60;15.80;;;11.90;99.90;;;;;;5100480;27;20045;-79
2022/05/20 04:38:43;;;;;;;24.33;16.50;;;11.80;99.90;;;;;;5098232;27;20030;-80
2022/05/20 04:46:58;;;;;;;19.60;15.00;;;12.00;99.90;;;;;;5123442;27;20054;-77
2022/05/20 04:49:32;;;;;;;26.75;16.60;;;12.00;99.90;;;;;;5108462;27;20118;-78
2022/05/20 04:52:00;;;;;;;20.27;14.88;;;12.10;99.90;;;;;;5112026;27;20484;-78
2022/05/20 04:57:26;;;;;;;24.52;15.80;;;12.20;99.90;;;;;;5118535;27;20057;-79
2022/05/20 04:59:54;;;;;;;23.38;15.00;;;12.30;99.90;;;;;;5099250;27;21411;-79
2022/05/20 05:02:20;;;;;;;20.48;16.30;;;12.40;99.90;;;;;;5113581;27;20034;-78
2022/05/20 05:04:46;;;;;;;21.77;15.57;;;12.40;99.90;;;;;;5115888;27;20186;-79
2022/05/20 05:07:12;;;;;;;19.30;15.43;;;12.40;99.90;;;;;;5098813;27;20134;-78
2022/05/20 05:09:40;;;;;;;24.98;14.55;;;12.50;99.90;;;;;;5117450;27;20047;-79
2022/05/20 05:12:08;;;;;;;22.70;15.50;;;12.50;99.90;;;;;;5113886;27;20109;-79
2022/05/20 05:14:45;;;;;;;23.27;16.02;;;12.60;99.90;;;;;;5098347;27;20043;-79
2022/05/20 05:17:13;;;;;;;25.55;15.85;;;12.70;99.90;;;;;;5120206;27;20130;-78
2022/05/20 05:19:44;;;;;;;20.92;15.23;;;12.70;99.90;;;;;;5102288;27;20358;-77
2022/05/20 05:22:10;;;;;;;15.00;7.88;;;12.80;99.90;;;;;;5095081;27;20512;-74
2022/05/20 05:24:38;;;;;;;16.10;10.55;;;13.60;99.90;;;;;;5107985;27;20340;-73
2022/05/20 05:27:05;;;;;;;14.82;11.45;;;14.20;99.90;;;;;;5114910;27;20389;-73
2022/05/20 05:29:30;;;;;;;12.48;8.48;;;14.40;99.90;;;;;;5118561;27;20050;-73
2022/05/20 05:31:57;;;;;;;14.70;8.55;;;14.70;99.90;;;;;;5115936;27;20050;-73
2022/05/20 05:34:23;;;;;;;11.20;7.78;;;14.90;99.90;;;;;;5120150;27;20516;-73
2022/05/20 05:36:49;;;;;;;14.27;8.13;;;15.10;99.90;;;;;;5110517;27;20091;-74
2022/05/20 05:39:14;;;;;;;13.30;8.65;;;15.30;99.90;;;;;;5114213;27;20058;-75
2022/05/20 05:41:40;;;;;;;11.77;7.90;;;15.50;99.90;;;;;;5112525;27;22383;-75
2022/05/20 05:44:06;;;;;;;16.40;8.88;;;15.50;99.90;;;;;;5114282;27;20099;-75
2022/05/20 05:46:32;;;;;;;14.00;8.10;;;15.70;99.90;;;;;;5124858;27;20113;-74
2022/05/20 05:48:58;;;;;;;11.15;7.53;;;15.80;99.90;;;;;;5119941;27;20343;-73
2022/05/20 05:51:25;;;;;;;14.15;7.25;;;15.90;99.90;;;;;;5117973;27;20114;-74
2022/05/20 05:53:52;;;;;;;10.27;7.43;;;16.10;99.90;;;;;;5095902;27;20054;-74
2022/05/20 05:56:18;;;;;;;10.48;6.68;;;16.10;99.90;;;;;;5110703;27;20051;-73
2022/05/20 05:58:43;;;;;;;12.40;8.18;;;16.20;99.90;;;;;;5114594;27;20042;-73
2022/05/20 06:01:10;;;;;;;11.45;6.82;;;16.30;99.90;;;;;;5111065;27;20050;-74
2022/05/20 06:03:35;;;;;;;14.93;7.53;;;16.40;99.90;;;;;;5111375;27;20153;-74
2022/05/20 06:06:01;;;;;;;9.68;6.43;;;16.50;99.90;;;;;;5113759;27;20125;-74
2022/05/20 06:08:27;;;;;;;10.20;6.47;;;16.60;99.90;;;;;;5116747;27;20062;-73
2022/05/20 06:10:53;;;;;;;11.77;7.50;;;16.60;99.90;;;;;;5101186;27;20421;-73
2022/05/20 06:13:27;;;;;;;11.95;6.68;;;16.70;99.90;;;;;;5106493;27;20046;-74
2022/05/20 06:15:56;;;;;;;10.05;6.55;;;16.60;99.90;;;;;;5116852;27;20047;-74
2022/05/20 06:18:23;;;;;;;13.20;6.93;;;16.60;99.90;;;;;;5112177;27;20050;-74
2022/05/20 06:20:49;;;;;;;16.95;7.38;;;16.80;99.90;;;;;;5092226;27;20412;-73
2022/05/20 06:23:15;;;;;;;19.05;8.05;;;16.80;99.90;;;;;;5114971;27;20115;-76
2022/05/20 06:25:41;;;;;;;13.93;6.63;;;16.70;99.90;;;;;;5094667;27;20383;-75
2022/05/20 06:28:10;;;;;;;13.60;6.43;;;16.40;99.90;;;;;;5097140;27;20042;-74
2022/05/20 06:30:37;;;;;;;13.60;5.45;;;16.20;99.90;;;;;;5109432;27;20153;-73
2022/05/20 06:33:03;;;;;;;13.43;5.85;;;16.40;99.90;;;;;;5110311;27;20043;-72
2022/05/20 06:40:59;;;;;;;;;;;16.60;99.90;;;;;;5110755;27;20081;-72
2022/05/20 06:43:26;;;;;;;12.30;6.30;;;17.00;99.90;;;;;;5115306;27;20006;-72
2022/05/20 06:45:56;;;;;;;10.27;5.90;;;17.10;99.90;;;;;;5098651;27;20039;-73
2022/05/20 06:48:22;;;;;;;12.32;6.00;;;17.20;99.90;;;;;;5112834;27;20035;-73
2022/05/20 06:50:48;;;;;;;11.52;5.18;;;17.10;99.90;;;;;;5109801;27;20039;-72
2022/05/20 06:53:14;;;;;;;8.82;4.55;;;17.00;99.90;;;;;;5093175;27;20046;-72
2022/05/20 06:55:40;;;;;;;10.07;4.93;;;17.00;99.90;;;;;;5116321;27;20034;-74
2022/05/20 06:58:07;;;;;;;9.57;4.97;;;17.00;99.90;;;;;;5095301;27;20027;-73
2022/05/20 07:00:33;;;;;;;16.48;5.38;;;17.10;99.90;;;;;;5111539;27;20030;-73
2022/05/20 07:02:58;;;;;;;14.38;4.28;;;17.00;99.90;;;;;;5110797;27;20027;-73
2022/05/20 07:05:24;;;;;;;16.92;4.47;;;16.90;99.90;;;;;;5108699;27;20371;-72
2022/05/20 07:07:50;;;;;;;13.38;5.10;;;16.90;99.90;;;;;;5104987;27;20051;-73
2022/05/20 07:10:16;;;;;;;13.38;4.60;;;17.00;99.90;;;;;;5092829;27;20150;-74
2022/05/20 07:12:42;;;;;;;12.73;4.68;;;16.80;99.90;;;;;;5093212;27;20047;-73
2022/05/20 07:15:09;;;;;;;9.63;4.30;;;16.80;99.90;;;;;;5109260;27;20039;-73
2022/05/20 07:17:36;;;;;;;9.35;4.50;;;16.70;99.90;;;;;;5111561;27;20054;-74
2022/05/20 07:20:02;;;;;;;9.77;4.90;;;16.70;99.90;;;;;;5110299;27;20043;-74
2022/05/20 07:22:28;;;;;;;14.00;5.35;;;16.70;99.90;;;;;;5108434;27;20039;-74
2022/05/20 07:24:55;;;;;;;9.82;4.95;;;16.70;99.90;;;;;;5092620;27;20043;-74
2022/05/20 07:27:21;;;;;;;8.80;4.60;;;16.70;99.90;;;;;;5113450;27;20039;-74
2022/05/20 07:29:47;;;;;;;12.45;5.63;;;16.90;99.90;;;;;;5113378;27;20686;-73
2022/05/20 07:32:13;;;;;;;10.93;5.18;;;17.10;99.90;;;;;;5110055;27;20039;-76
2022/05/20 07:34:38;;;;;;;8.38;4.50;;;17.00;99.90;;;;;;5122857;27;20031;-74
2022/05/20 07:37:05;;;;;;;6.68;4.10;;;17.20;99.90;;;;;;5111505;27;20043;-73
2022/05/20 07:39:31;;;;;;;8.52;3.80;;;17.20;99.90;;;;;;5107129;27;20059;-73
2022/05/20 07:41:56;;;;;;;9.38;4.63;;;17.40;99.90;;;;;;5108887;27;20448;-75
2022/05/20 07:44:22;;;;;;;9.02;3.92;;;17.30;99.90;;;;;;5108353;27;20074;-75
2022/05/20 07:46:48;;;;;;;8.75;4.25;;;17.30;99.90;;;;;;5103548;27;20035;-73
2022/05/20 07:49:14;;;;;;;10.75;4.50;;;17.30;99.90;;;;;;5091142;27;20162;-75
2022/05/20 07:51:42;;;;;;;10.63;4.85;;;17.30;99.90;;;;;;5104123;27;20047;-76
2022/05/20 07:54:14;;;;;;;12.10;4.53;;;17.20;99.90;;;;;;5095552;28;20130;-75
2022/05/20 07:56:49;;;;;;;8.75;4.72;;;17.20;99.90;;;;;;5108534;27;20475;-76
2022/05/20 07:59:27;;;;;;;9.77;4.10;;;17.20;99.90;;;;;;5093301;28;20050;-75
2022/05/20 08:01:54;;;;;;;8.77;4.13;;;17.50;99.90;;;;;;5094626;28;20112;-75
2022/05/20 08:07:14;;;;;;;11.98;4.10;;;17.40;99.90;;;;;;5107164;27;20451;-74
2022/05/20 08:09:41;;;;;;;8.23;3.55;;;17.70;99.90;;;;;;5099785;27;20036;-74
2022/05/20 08:12:07;;;;;;;8.32;3.13;;;17.80;99.90;;;;;;5091291;27;20439;-75
2022/05/20 08:14:33;;;;;;;8.75;2.72;;;18.00;99.90;;;;;;5109038;27;20039;-74
2022/05/20 08:17:00;;;;;;;6.55;3.10;;;18.20;99.90;;;;;;5109223;27;20043;-75
2022/05/20 08:19:26;;;;;;;8.95;3.75;;;18.30;99.90;;;;;;5103687;27;20202;-75
2022/05/20 08:21:52;;;;;;;13.00;4.05;;;18.40;99.90;;;;;;5104618;28;20157;-77
2022/05/20 08:24:18;;;;;;;9.90;4.35;;;18.50;99.90;;;;;;5088454;28;20034;-78
2022/05/20 08:26:44;;;;;;;10.50;3.97;;;18.70;99.90;;;;;;5105556;28;20062;-79
2022/05/20 08:29:12;;;;;;;12.70;3.90;;;18.80;99.90;;;;;;5108083;28;20097;-80
2022/05/20 08:31:42;;;;;;;9.30;3.78;;;19.00;99.90;;;;;;5101492;28;20119;-79
2022/05/20 08:34:10;;;;;;;7.55;3.25;;;19.10;99.90;;;;;;5122230;28;20039;-77
2022/05/20 08:36:38;;;;;;;6.65;2.95;;;19.20;99.90;;;;;;5123999;28;20047;-78
2022/05/20 08:39:05;;;;;;;9.95;3.00;;;19.10;99.90;;;;;;5092652;28;20036;-79
2022/05/20 08:41:40;;;;;;;6.45;3.20;;;19.00;99.90;;;;;;5119304;28;20074;-79
2022/05/20 08:44:11;;;;;;;8.35;2.80;;;18.90;99.90;;;;;;5120488;28;20069;-78
2022/05/20 08:46:38;;;;;;;8.23;2.80;;;18.90;99.90;;;;;;5107888;28;20107;-78
2022/05/20 08:49:06;;;;;;;9.48;3.30;;;18.90;99.90;;;;;;5120030;28;20074;-77
2022/05/20 08:51:33;;;;;;;6.22;3.30;;;19.10;99.90;;;;;;5102185;28;20039;-79
2022/05/20 08:54:01;;;;;;;7.22;3.10;;;19.10;99.90;;;;;;5097916;28;20044;-78
2022/05/20 08:56:27;;;;;;;6.10;2.80;;;19.10;99.90;;;;;;5112652;28;20043;-79
2022/05/20 08:59:09;;;;;;;11.77;3.10;;;19.30;99.90;;;;;;5108466;28;20497;-77
2022/05/20 09:01:39;;;;;;;7.40;2.55;;;19.20;99.90;;;;;;5129295;28;20035;-76
2022/05/20 09:04:11;;;;;;;8.10;2.75;;;19.40;99.90;;;;;;5117055;28;20063;-79
2022/05/20 09:06:58;;;;;;;4.07;1.80;;;19.40;99.90;;;;;;5095892;28;20336;-78
2022/05/20 09:09:27;;;;;;;6.07;2.20;;;19.40;99.90;;;;;;5119561;28;20103;-79
2022/05/20 09:11:57;;;;;;;6.70;2.30;;;19.30;99.90;;;;;;5116064;28;20043;-78
2022/05/20 09:17:23;;;;;;;6.87;2.73;;;19.50;99.90;;;;;;5110127;28;20043;-80
2022/05/20 09:20:07;;;;;;;5.65;2.80;;;19.50;99.90;;;;;;5110576;28;20062;-79
2022/05/20 09:22:36;;;;;;;6.18;2.90;;;19.70;99.90;;;;;;5115440;28;20028;-79
2022/05/20 09:25:25;;;;;;;5.05;2.78;;;19.70;99.90;;;;;;5095768;28;20040;-79
2022/05/20 09:27:56;;;;;;;5.65;2.75;;;19.90;99.90;;;;;;5093187;28;20063;-80
2022/05/20 09:30:23;;;;;;;7.97;2.67;;;19.90;99.90;;;;;;5093607;28;20043;-80
2022/05/20 09:33:21;;;;;;;7.57;2.80;;;19.90;99.90;;;;;;5092184;28;20499;-80
2022/05/20 09:35:59;;;;;;;7.38;2.70;;;20.10;99.90;;;;;;5101011;28;20039;-78
2022/05/20 09:38:35;;;;;;;6.05;2.58;;;20.20;99.90;;;;;;5111941;28;20040;-78
2022/05/20 09:41:29;;;;;;;8.02;2.78;;;20.20;99.90;;;;;;5115650;27;20439;-80
2022/05/20 09:44:00;;;;;;;11.45;3.05;;;20.30;99.90;;;;;;5104355;27;20047;-79
2022/05/20 09:46:39;;;;;;;8.15;3.53;;;20.30;99.90;;;;;;5111858;27;20118;-78
2022/05/20 09:49:14;;;;;;;4.75;2.55;;;20.40;99.90;;;;;;5114156;27;20360;-79
2022/05/20 09:51:55;;;;;;;6.38;2.70;;;20.40;99.90;;;;;;5102108;27;20995;-79
2022/05/20 09:54:23;;;;;;;7.15;2.75;;;20.50;99.90;;;;;;5125419;27;20134;-80
2022/05/20 09:57:11;;;;;;;9.38;3.13;;;20.70;99.90;;;;;;5121434;27;20050;-79
2022/05/20 09:59:41;;;;;;;5.05;3.00;;;20.60;99.90;;;;;;5097678;28;20185;-79
2022/05/20 10:02:20;;;;;;;6.72;2.92;;;20.70;99.90;;;;;;5095903;27;20039;-78
2022/05/20 10:05:11;;;;;;;6.50;2.92;;;20.70;99.90;;;;;;5098945;28;20454;-80
2022/05/20 10:08:00;;;;;;;6.50;2.53;;;20.60;99.90;;;;;;5115841;27;20100;-79
2022/05/20 10:10:53;;;;;;;7.32;2.40;;;20.60;99.90;;;;;;5103428;28;20104;-79
2022/05/20 10:13:29;;;;;;;5.53;2.53;;;20.50;99.90;;;;;;5122429;27;20051;-79
2022/05/20 10:16:26;;;;;;;6.10;2.50;;;20.60;99.90;;;;;;5102544;27;20474;-79
2022/05/20 10:19:30;;;;;;;5.60;2.45;;;20.40;99.90;;;;;;5103544;27;20070;-80
2022/05/20 10:22:25;;;;;;;6.30;2.40;;;20.40;99.90;;;;;;5130447;27;20071;-79
2022/05/20 10:24:56;;;;;;;5.00;2.40;;;20.50;99.90;;;;;;5105986;28;20056;-79
2022/05/20 10:27:28;;;;;;;6.68;2.25;;;20.40;99.90;;;;;;5119809;28;20039;-77
2022/05/20 10:33:04;;;;;;;10.48;2.42;;;20.70;99.90;;;;;;5114414;27;20462;-81
2022/05/20 10:35:53;;;;;;;7.40;2.33;;;20.70;99.90;;;;;;5112952;27;20422;-80
2022/05/20 10:38:49;;;;;;;7.35;2.30;;;20.90;99.90;;;;;;5095368;27;20350;-82
2022/05/20 10:41:52;;;;;;;4.18;2.00;;;21.00;99.90;;;;;;5104913;27;20118;-81
2022/05/20 10:50:33;;;;;;;6.30;2.08;;;21.30;99.90;;;;;;5141946;27;20139;-80
2022/05/20 10:53:05;;;;;;;4.57;2.33;;;21.40;99.90;;;;;;5117060;27;20039;-77
2022/05/20 10:55:48;;;;;;;4.18;1.90;;;21.10;99.90;;;;;;5100604;27;20040;-78
2022/05/20 10:58:14;;;;;;;5.25;2.25;;;21.40;99.90;;;;;;5115148;27;20035;-77
2022/05/20 11:00:52;;;;;;;6.32;2.60;;;21.50;99.90;;;;;;5119624;27;20470;-77
2022/05/20 11:03:47;;;;;;;5.88;2.70;;;21.50;99.90;;;;;;5116538;27;20051;-78
2022/05/20 11:06:28;;;;;;;;;;;21.50;99.90;;;;;;5121162;27;20425;-77
2022/05/20 11:09:00;;;;;;;6.28;2.53;;;21.40;99.90;;;;;;5115776;27;20299;-78
2022/05/20 11:11:34;;;;;;;6.38;3.25;;;21.50;99.90;;;;;;5116189;27;20039;-76
2022/05/20 11:14:19;;;;;;;8.32;3.50;;;21.50;99.90;;;;;;5119467;27;20047;-78
2022/05/20 11:17:10;;;;;;;8.80;3.33;;;21.50;99.90;;;;;;5102377;27;20070;-79
2022/05/20 11:20:04;;;;;;;11.63;3.45;;;21.70;99.90;;;;;;5099332;27;20047;-80
2022/05/20 11:22:55;;;;;;;6.00;2.80;;;22.00;99.90;;;;;;5111888;27;20168;-79
2022/05/20 11:25:33;;;;;;;5.72;2.90;;;21.70;99.90;;;;;;5100405;27;20043;-77
2022/05/20 11:28:10;;;;;;;11.13;3.42;;;21.90;99.90;;;;;;5104124;27;20095;-76
2022/05/20 11:31:14;;;;;;;8.18;3.35;;;22.00;99.90;;;;;;5114306;27;20038;-74
2022/05/20 11:34:17;;;;;;;9.90;3.63;;;22.40;99.90;;;;;;5121869;27;20046;-78
2022/05/20 11:37:02;;;;;;;6.88;3.22;;;22.60;99.90;;;;;;5041600;28;20345;-79
2022/05/20 11:40:03;;;;;;;6.95;3.40;;;22.30;99.90;;;;;;5038310;28;20088;-77
2022/05/20 11:42:36;;;;;;;6.68;2.47;;;22.30;99.90;;;;;;5039376;28;20424;-79
2022/05/20 11:45:51;;;;;;;6.68;3.33;;;22.60;99.90;;;;;;5044203;28;20075;-77
2022/05/20 11:48:25;;;;;;;5.43;2.50;;;22.60;99.90;;;;;;4988422;28;20486;-76
2022/05/20 11:51:17;;;;;;;6.40;2.60;;;23.10;99.90;;;;;;4989373;28;20057;-75
2022/05/20 11:54:01;;;;;;;8.10;3.33;;;23.20;99.90;;;;;;4955380;28;20042;-76
2022/05/20 11:56:37;;;;;;;;;;;23.00;99.90;;;;;;4977746;28;20057;-78
2022/05/20 11:59:16;;;;;;;4.90;2.72;;;23.00;99.90;;;;;;4965228;28;19953;-77
2022/05/20 12:01:46;;;;;;;7.60;2.60;;;23.00;99.90;;;;;;4965617;28;20049;-76
2022/05/20 12:04:16;;;;;;;7.25;2.42;;;23.30;99.90;;;;;;4947176;28;20050;-75
2022/05/20 12:06:49;;;;;;;6.30;2.72;;;23.20;99.90;;;;;;4946354;28;20092;-78
2022/05/20 12:09:29;;;;;;;4.18;2.40;;;23.00;99.90;;;;;;4961461;28;20246;-78
2022/05/20 12:12:15;;;;;;;5.82;2.17;;;22.70;99.30;;;;;;5037468;28;20080;-78
2022/05/20 12:15:01;;;;;;;3.45;2.05;;;22.70;99.30;;;;;;5021472;28;20060;-80
2022/05/20 12:17:40;;;;;;;3.97;2.20;;;22.70;99.70;;;;;;5033614;28;20056;-81
2022/05/20 12:25:52;;;;;;;6.63;3.10;;;22.50;99.40;;;;;;5116273;27;20038;-80
2022/05/20 12:28:20;;;;;;;4.65;2.83;;;22.50;99.80;;;;;;5100794;27;20050;-81
2022/05/20 12:31:20;;;;;;;8.40;2.70;;;22.60;99.80;;;;;;5100680;27;20070;-83
2022/05/20 12:33:59;;;;;;;17.67;3.20;;;22.30;98.10;;;;;;5115202;27;20058;-80
2022/05/20 12:36:27;;;;;;;5.03;2.40;;;22.20;99.90;;;;;;5102378;27;20054;-82
2022/05/20 12:39:16;;;;;;;6.57;2.60;;;22.10;98.90;;;;;;5122866;27;20042;-78
2022/05/20 12:41:53;;;;;;;6.55;2.20;;;22.40;97.70;;;;;;5118621;27;20047;-80
2022/05/20 12:44:20;;;;;;;3.85;2.50;;;22.80;98.40;;;;;;5096175;27;20043;-79
2022/05/20 12:47:04;;;;;;;5.10;2.97;;;22.90;96.40;;;;;;5118186;27;20046;-80
2022/05/20 12:49:45;;;;;;;5.38;2.63;;;22.90;97.00;;;;;;5107916;27;20042;-77
2022/05/20 12:52:17;;;;;;;5.93;2.63;;;22.80;97.30;;;;;;5113256;27;20142;-78
2022/05/20 12:54:50;;;;;;;5.97;2.70;;;22.60;97.50;;;;;;5100206;27;20111;-78
2022/05/20 12:57:26;;;;;;;6.75;3.95;;;22.50;96.70;;;;;;5098216;27;20062;-80
2022/05/20 13:00:03;;;;;;;9.70;2.75;;;22.50;97.20;;;;;;5110890;27;20158;-81
2022/05/20 13:02:46;;;;;;;7.88;4.45;;;22.60;98.70;;;;;;5097415;27;20096;-79
2022/05/20 13:05:37;;;;;;;9.43;4.97;;;22.50;98.90;;;;;;5122901;27;20133;-74
2022/05/20 13:08:20;;;;;;;6.78;4.18;;;22.60;98.70;;;;;;5096510;27;20051;-78
2022/05/20 13:10:46;;;;;;;6.07;4.35;;;22.60;98.20;;;;;;5138672;27;20039;-75
2022/05/20 13:13:30;;;;;;;11.48;4.53;;;22.40;97.70;;;;;;5109825;27;20082;-75
2022/05/20 13:16:00;;;;;;;8.50;5.20;;;22.30;98.10;;;;;;5123231;27;20035;-77
2022/05/20 13:18:28;;;;;;;8.15;5.13;;;22.00;99.00;;;;;;5120983;27;20046;-75
2022/05/20 13:21:22;;;;;;;6.95;3.67;;;21.80;99.90;;;;;;5117409;27;20110;-77
2022/05/20 13:23:50;;;;;;;6.25;4.18;;;21.60;99.90;;;;;;5102953;27;20050;-74
2022/05/20 13:26:31;;;;;;;10.45;3.97;;;21.50;99.90;;;;;;5132065;27;20042;-76
2022/05/20 13:29:08;;;;;;;5.13;3.00;;;21.40;99.90;;;;;;5129283;27;20051;-75
2022/05/20 13:31:34;;;;;;;7.95;4.03;;;21.50;99.90;;;;;;5099836;27;20208;-76
2022/05/20 13:34:01;;;;;;;9.35;4.20;;;21.30;99.90;;;;;;5099102;27;20043;-82
2022/05/20 13:36:39;;;;;;;11.35;4.07;;;21.20;99.90;;;;;;5101212;27;20483;-78
2022/05/20 13:39:05;;;;;;;9.20;3.80;;;20.90;99.90;;;;;;5113943;27;20121;-79
2022/05/20 13:41:33;;;;;;;9.73;4.22;;;20.80;99.90;;;;;;5111616;27;20405;-81
2022/05/20 13:44:03;;;;;;;8.02;3.60;;;20.80;99.90;;;;;;5113227;27;20039;-82